Time;durP1;ratioP1;P1;durP2;ratioP2;P2;SDS_P1;SDS_P2;PMS_P1;PMS_P2;Temp;Humidity;BMP_temperature;BMP_pressure;BME280_temperature;BME280_humidity;BME280_pressure;Samples;Min_cycle;Max_cycle;Signal;HPM_P1;HPM_P2
2023/08/06 00:01:39;;;;;;;7.38;6.05;;;16.50;99.90;;;;;;4993340;28;20056;-86
2023/08/06 00:04:05;;;;;;;8.57;5.72;;;16.50;99.90;;;;;;4993809;28;20069;-86
2023/08/06 00:06:30;;;;;;;5.97;5.47;;;16.40;99.90;;;;;;4993043;28;20137;-86
2023/08/06 00:08:56;;;;;;;5.93;5.43;;;16.40;99.90;;;;;;4993771;28;20474;-86
2023/08/06 00:11:21;;;;;;;5.55;4.78;;;16.50;99.90;;;;;;4993429;28;20022;-85
2023/08/06 00:13:47;;;;;;;6.53;6.03;;;16.40;99.90;;;;;;4992465;28;20030;-85
2023/08/06 00:16:13;;;;;;;6.28;5.47;;;16.40;99.90;;;;;;4993263;28;20025;-85
2023/08/06 00:18:39;;;;;;;6.18;5.47;;;16.60;99.90;;;;;;4993111;28;20477;-83
2023/08/06 00:21:05;;;;;;;6.10;5.60;;;16.50;99.90;;;;;;4992631;28;20027;-85
2023/08/06 00:23:31;;;;;;;5.38;4.97;;;16.50;99.90;;;;;;4993258;28;20491;-85
2023/08/06 00:25:56;;;;;;;6.97;5.50;;;16.40;99.90;;;;;;4993301;28;20029;-85
2023/08/06 00:28:22;;;;;;;6.38;5.63;;;16.50;99.90;;;;;;4992365;28;20084;-85
2023/08/06 00:30:53;;;;;;;7.13;6.53;;;16.50;99.90;;;;;;4992886;28;20390;-85
2023/08/06 00:33:19;;;;;;;8.38;6.10;;;16.50;99.90;;;;;;4993066;28;20555;-85
2023/08/06 00:35:45;;;;;;;6.60;6.10;;;16.50;99.90;;;;;;4992649;28;20113;-85
2023/08/06 00:38:10;;;;;;;7.05;6.45;;;16.50;99.90;;;;;;4996838;28;20050;-84
2023/08/06 00:40:36;;;;;;;6.50;6.00;;;16.50;99.90;;;;;;4994826;28;20030;-85
2023/08/06 00:43:01;;;;;;;6.90;6.32;;;16.50;99.90;;;;;;4992119;28;20038;-85
2023/08/06 00:45:29;;;;;;;6.43;5.70;;;16.50;99.90;;;;;;4992542;28;20460;-85
2023/08/06 00:47:56;;;;;;;7.88;6.35;;;16.50;99.90;;;;;;4992949;28;20113;-85
2023/08/06 00:50:22;;;;;;;7.85;5.80;;;16.50;99.90;;;;;;4993562;28;20034;-85
2023/08/06 00:52:49;;;;;;;8.18;5.90;;;16.50;99.90;;;;;;4999404;28;20391;-85
2023/08/06 00:55:15;;;;;;;6.80;6.20;;;16.50;99.90;;;;;;4999586;28;20031;-85
2023/08/06 00:57:41;;;;;;;6.63;6.00;;;16.50;99.90;;;;;;4998342;28;20030;-85
2023/08/06 01:00:07;;;;;;;6.57;6.03;;;16.50;99.90;;;;;;4999211;28;20026;-85
2023/08/06 01:02:33;;;;;;;7.78;5.65;;;16.50;99.90;;;;;;4998387;28;20363;-85
2023/08/06 01:04:58;;;;;;;6.63;6.05;;;16.40;99.90;;;;;;4999624;28;20089;-85
2023/08/06 01:08:02;;;;;;;6.18;5.75;;;16.40;99.90;;;;;;4999351;28;20049;-85
2023/08/06 01:10:45;;;;;;;7.25;6.53;;;16.40;99.90;;;;;;4998671;28;20065;-85
2023/08/06 01:13:27;;;;;;;6.18;5.68;;;16.40;99.90;;;;;;4999408;28;20037;-85
2023/08/06 01:15:59;;;;;;;5.40;5.00;;;16.40;99.90;;;;;;4999216;28;20033;-84
2023/08/06 01:18:28;;;;;;;6.35;5.80;;;16.50;99.90;;;;;;4998482;28;20037;-84
2023/08/06 01:20:53;;;;;;;6.13;5.63;;;16.50;99.90;;;;;;4999055;28;20113;-85
2023/08/06 01:23:19;;;;;;;5.88;5.32;;;16.40;99.90;;;;;;4999339;28;20042;-85
2023/08/06 01:26:09;;;;;;;5.97;5.38;;;16.40;99.90;;;;;;4997897;28;20496;-85
2023/08/06 01:28:35;;;;;;;5.83;5.33;;;16.40;99.90;;;;;;4999304;28;20072;-85
2023/08/06 01:31:03;;;;;;;8.10;6.63;;;16.50;99.90;;;;;;4999514;28;20050;-85
2023/08/06 01:33:32;;;;;;;5.30;4.90;;;16.50;99.90;;;;;;5002364;28;20025;-84
2023/08/06 01:35:58;;;;;;;6.05;5.28;;;16.50;99.90;;;;;;4999222;28;20084;-84
2023/08/06 01:38:25;;;;;;;6.95;5.53;;;16.50;99.90;;;;;;4998615;28;20046;-85
2023/08/06 01:40:50;;;;;;;6.07;5.43;;;16.50;99.90;;;;;;4998906;28;20049;-86
2023/08/06 01:43:16;;;;;;;6.45;5.80;;;16.50;99.90;;;;;;4998963;28;20470;-85
2023/08/06 01:45:42;;;;;;;5.90;5.30;;;16.50;99.90;;;;;;4998164;28;20378;-85
2023/08/06 01:48:07;;;;;;;5.93;5.40;;;16.40;99.90;;;;;;4998509;28;20034;-86
2023/08/06 01:50:33;;;;;;;8.75;6.32;;;16.70;99.90;;;;;;4998991;28;20022;-85
2023/08/06 01:52:59;;;;;;;6.28;5.78;;;16.60;99.90;;;;;;4997835;28;20038;-85
2023/08/06 01:55:24;;;;;;;6.55;5.90;;;16.90;99.90;;;;;;4999157;28;20026;-84
2023/08/06 01:57:50;;;;;;;5.95;5.45;;;16.50;99.90;;;;;;4998502;28;20371;-84
2023/08/06 02:00:15;;;;;;;6.68;6.18;;;16.60;99.90;;;;;;4998252;28;20023;-84
2023/08/06 02:02:41;;;;;;;7.78;6.45;;;16.60;99.90;;;;;;4995820;28;20026;-84
2023/08/06 02:05:07;;;;;;;6.60;6.10;;;16.50;99.90;;;;;;4996066;28;20121;-84
2023/08/06 02:07:32;;;;;;;6.63;6.13;;;16.50;99.90;;;;;;4995046;28;20022;-84
2023/08/06 02:09:58;;;;;;;6.80;6.10;;;16.50;99.90;;;;;;4995898;28;20473;-84
2023/08/06 02:12:24;;;;;;;6.68;6.18;;;16.60;99.90;;;;;;4995953;28;20367;-85
2023/08/06 02:14:49;;;;;;;6.65;6.10;;;16.50;99.90;;;;;;4994643;28;20041;-85
2023/08/06 02:17:15;;;;;;;7.03;6.50;;;16.50;99.90;;;;;;4995852;28;20034;-85
2023/08/06 02:19:43;;;;;;;8.45;6.32;;;16.50;99.90;;;;;;5016898;28;20018;-84
2023/08/06 02:22:08;;;;;;;7.13;6.07;;;16.40;99.90;;;;;;5017176;28;20227;-84
2023/08/06 02:24:34;;;;;;;9.23;6.05;;;16.40;99.90;;;;;;5008104;28;20026;-84
2023/08/06 02:26:59;;;;;;;6.60;5.97;;;16.40;99.90;;;;;;4994948;28;20072;-85
2023/08/06 02:29:25;;;;;;;6.68;5.78;;;16.40;99.90;;;;;;5012890;28;20026;-84
2023/08/06 02:31:50;;;;;;;6.47;5.63;;;16.40;99.90;;;;;;5034039;28;20083;-84
2023/08/06 02:34:16;;;;;;;8.38;6.85;;;16.40;99.90;;;;;;5033967;28;20021;-85
2023/08/06 02:36:42;;;;;;;9.80;6.97;;;16.30;99.90;;;;;;5034305;28;20147;-84
2023/08/06 02:39:07;;;;;;;8.98;7.28;;;16.30;99.90;;;;;;5034405;28;20531;-85
2023/08/06 02:41:33;;;;;;;6.55;5.85;;;16.30;99.90;;;;;;5033287;28;20064;-84
2023/08/06 02:43:58;;;;;;;6.90;6.32;;;16.90;99.90;;;;;;5034449;28;20044;-85
2023/08/06 02:46:24;;;;;;;7.18;6.55;;;16.30;99.90;;;;;;5034019;28;20022;-83
2023/08/06 02:48:49;;;;;;;7.03;6.35;;;16.60;99.90;;;;;;5033408;28;20473;-84
2023/08/06 02:51:15;;;;;;;10.10;6.70;;;16.20;99.90;;;;;;5034377;28;20477;-84
2023/08/06 02:53:41;;;;;;;8.73;7.10;;;16.20;99.90;;;;;;5034023;28;20025;-84
2023/08/06 02:56:06;;;;;;;7.88;6.75;;;16.20;99.90;;;;;;5033412;28;20037;-84
2023/08/06 02:58:32;;;;;;;7.88;7.18;;;16.30;99.90;;;;;;5033831;28;20584;-84
2023/08/06 03:01:06;;;;;;;9.48;7.57;;;16.30;99.90;;;;;;5026025;28;20386;-84
2023/08/06 03:03:32;;;;;;;9.38;7.05;;;16.30;99.90;;;;;;5012418;28;20393;-84
2023/08/06 03:05:58;;;;;;;7.40;6.78;;;16.30;99.90;;;;;;5012908;28;20022;-84
2023/08/06 03:08:24;;;;;;;7.53;6.65;;;16.30;99.90;;;;;;5014199;28;20022;-84
2023/08/06 03:10:50;;;;;;;7.32;6.63;;;16.30;99.90;;;;;;5012778;28;20129;-84
2023/08/06 03:13:19;;;;;;;7.20;6.50;;;16.30;99.90;;;;;;5013931;28;20048;-84
2023/08/06 03:15:59;;;;;;;7.20;6.20;;;16.40;99.90;;;;;;5013659;28;20057;-84
2023/08/06 03:18:26;;;;;;;8.50;6.75;;;16.40;99.90;;;;;;5013526;28;20041;-84
2023/08/06 03:20:52;;;;;;;7.53;6.85;;;16.40;99.90;;;;;;5013545;28;20029;-85
2023/08/06 03:23:18;;;;;;;9.20;7.05;;;16.30;99.90;;;;;;5013196;28;20596;-84
2023/08/06 03:25:44;;;;;;;8.07;7.30;;;16.30;99.90;;;;;;5013378;28;20026;-84
2023/08/06 03:28:10;;;;;;;6.45;5.88;;;16.30;99.90;;;;;;5013435;28;20033;-84
2023/08/06 03:30:35;;;;;;;7.82;6.97;;;16.30;99.90;;;;;;5012882;28;20032;-84
2023/08/06 03:33:01;;;;;;;9.27;7.25;;;16.30;99.90;;;;;;5013705;28;20029;-84
2023/08/06 03:35:26;;;;;;;8.38;7.57;;;16.20;99.90;;;;;;5013619;28;20051;-84
2023/08/06 03:37:52;;;;;;;7.75;7.00;;;16.30;99.90;;;;;;5012284;28;20092;-85
2023/08/06 03:40:17;;;;;;;10.48;7.40;;;16.30;99.90;;;;;;5013597;28;20037;-85
2023/08/06 03:42:43;;;;;;;8.95;7.60;;;16.30;99.90;;;;;;5013053;28;20037;-84
2023/08/06 03:45:09;;;;;;;10.65;8.10;;;16.20;99.90;;;;;;5012657;28;20355;-85
2023/08/06 03:47:35;;;;;;;11.30;7.88;;;16.20;99.90;;;;;;5013200;28;20117;-85
2023/08/06 03:50:00;;;;;;;10.23;8.05;;;16.20;99.90;;;;;;5013569;28;20018;-85
2023/08/06 03:52:26;;;;;;;9.30;8.38;;;16.20;99.90;;;;;;5012723;28;20029;-84
2023/08/06 03:54:51;;;;;;;10.05;8.15;;;16.20;99.90;;;;;;5013178;28;20532;-85
2023/08/06 03:57:17;;;;;;;10.15;8.85;;;16.20;99.90;;;;;;5013437;28;20095;-85
2023/08/06 03:59:43;;;;;;;11.10;9.20;;;16.20;99.90;;;;;;5012592;28;20022;-85
2023/08/06 04:02:08;;;;;;;11.02;10.02;;;16.10;99.90;;;;;;5012872;28;20110;-85
2023/08/06 04:04:34;;;;;;;13.07;9.85;;;16.10;99.90;;;;;;5013179;28;20029;-85
2023/08/06 04:07:00;;;;;;;11.13;10.02;;;16.10;99.90;;;;;;5012685;28;20088;-85
2023/08/06 04:09:28;;;;;;;12.90;10.88;;;16.10;99.90;;;;;;5013304;28;20030;-85
2023/08/06 04:11:54;;;;;;;12.45;10.32;;;16.10;99.90;;;;;;5012949;28;20030;-86
2023/08/06 04:14:20;;;;;;;12.77;11.57;;;16.00;99.90;;;;;;5012526;28;20025;-85
2023/08/06 04:16:45;;;;;;;14.00;10.82;;;16.00;99.90;;;;;;5013039;28;20539;-85
2023/08/06 04:19:12;;;;;;;11.77;10.60;;;16.00;99.90;;;;;;5032618;28;20133;-84
2023/08/06 04:21:38;;;;;;;12.98;11.75;;;16.00;99.90;;;;;;5031558;28;20113;-85
2023/08/06 04:24:03;;;;;;;12.65;11.35;;;15.90;99.90;;;;;;5032434;28;20026;-84
2023/08/06 04:26:29;;;;;;;12.70;11.43;;;15.90;99.90;;;;;;5031111;28;20044;-85
2023/08/06 04:28:55;;;;;;;12.07;11.07;;;15.90;99.90;;;;;;5032622;28;20021;-85
2023/08/06 04:31:21;;;;;;;15.93;12.43;;;15.80;99.90;;;;;;5019242;28;20057;-85
2023/08/06 04:33:47;;;;;;;6.88;6.30;;;15.80;99.90;;;;;;5011385;28;20030;-84
2023/08/06 04:36:12;;;;;;;3.63;3.33;;;15.80;99.90;;;;;;5007947;28;20027;-84
2023/08/06 04:38:38;;;;;;;3.35;2.78;;;15.90;99.90;;;;;;4992386;28;20049;-84
2023/08/06 04:41:04;;;;;;;2.75;2.55;;;15.50;99.90;;;;;;4995376;28;20030;-84
2023/08/06 04:43:29;;;;;;;2.08;1.98;;;15.50;99.90;;;;;;5012220;28;20026;-84
2023/08/06 04:45:56;;;;;;;2.92;2.55;;;15.40;99.90;;;;;;5012489;28;20085;-84
2023/08/06 04:48:22;;;;;;;11.60;3.63;;;15.30;99.90;;;;;;5011896;28;20029;-84
2023/08/06 04:50:49;;;;;;;2.72;2.53;;;15.20;99.90;;;;;;5012157;28;20363;-84
2023/08/06 04:53:15;;;;;;;3.03;2.63;;;15.10;99.90;;;;;;5012463;28;20034;-84
2023/08/06 04:55:41;;;;;;;3.38;3.03;;;15.00;99.90;;;;;;5011703;28;20070;-84
2023/08/06 04:58:10;;;;;;;6.50;3.63;;;14.90;99.90;;;;;;5012338;28;20097;-84
2023/08/06 05:00:35;;;;;;;5.70;3.20;;;14.90;99.90;;;;;;5012444;28;20026;-84
2023/08/06 05:03:01;;;;;;;6.95;3.38;;;14.90;99.90;;;;;;5011734;28;20371;-84
2023/08/06 05:05:28;;;;;;;4.00;3.40;;;14.80;99.90;;;;;;5012324;28;20022;-85
2023/08/06 05:07:54;;;;;;;3.80;3.50;;;14.90;99.90;;;;;;5014304;28;20037;-84
2023/08/06 05:10:20;;;;;;;5.03;3.30;;;14.80;99.90;;;;;;5016180;28;20022;-85
2023/08/06 05:12:46;;;;;;;3.60;3.30;;;14.80;99.90;;;;;;5012434;28;20049;-85
2023/08/06 05:15:11;;;;;;;6.93;3.92;;;14.70;99.90;;;;;;5012279;28;20095;-84
2023/08/06 05:17:37;;;;;;;5.03;3.45;;;14.70;99.90;;;;;;5011301;28;20080;-84
2023/08/06 05:20:03;;;;;;;5.07;3.97;;;14.70;99.90;;;;;;5012244;28;20018;-84
2023/08/06 05:22:28;;;;;;;5.18;3.63;;;14.70;99.90;;;;;;5011960;28;20065;-84
2023/08/06 05:24:54;;;;;;;4.15;3.40;;;14.70;99.90;;;;;;5012002;28;20029;-85
2023/08/06 05:27:20;;;;;;;4.00;3.65;;;14.70;99.90;;;;;;5036799;28;20030;-85
2023/08/06 05:29:45;;;;;;;5.13;3.80;;;14.70;99.90;;;;;;5032955;28;20033;-84
2023/08/06 05:32:11;;;;;;;5.30;3.90;;;14.70;99.90;;;;;;5009431;28;20026;-89
2023/08/06 05:34:37;;;;;;;5.40;3.65;;;14.70;99.90;;;;;;5445849;23;20053;-79
2023/08/06 05:37:03;;;;;;;4.05;3.40;;;14.70;99.90;;;;;;5030998;28;20480;-79
2023/08/06 05:39:29;;;;;;;3.80;3.35;;;14.70;99.90;;;;;;5034803;28;20048;-79
2023/08/06 05:41:55;;;;;;;4.38;3.53;;;14.80;99.90;;;;;;5029417;28;20033;-79
2023/08/06 05:44:21;;;;;;;5.65;3.83;;;14.80;99.90;;;;;;5035074;28;20029;-78
2023/08/06 05:46:46;;;;;;;6.20;3.50;;;14.80;99.90;;;;;;5034329;28;20032;-80
2023/08/06 05:49:13;;;;;;;5.10;3.15;;;14.90;99.90;;;;;;5033649;28;20112;-79
2023/08/06 05:51:39;;;;;;;4.35;3.08;;;14.80;99.90;;;;;;5034328;28;20454;-79
2023/08/06 05:54:05;;;;;;;3.78;3.00;;;14.80;99.90;;;;;;5034683;28;20061;-81
2023/08/06 05:56:30;;;;;;;3.08;2.65;;;14.80;99.90;;;;;;5033167;28;20076;-80
2023/08/06 05:58:56;;;;;;;4.43;2.67;;;14.80;99.90;;;;;;5031092;28;20499;-80
2023/08/06 06:01:22;;;;;;;3.30;3.00;;;15.30;99.90;;;;;;5033694;28;20016;-80
2023/08/06 06:03:47;;;;;;;5.03;3.22;;;14.80;99.90;;;;;;5031971;28;20487;-80
2023/08/06 06:06:13;;;;;;;4.63;3.47;;;14.80;99.90;;;;;;5034381;28;20047;-80
2023/08/06 06:08:38;;;;;;;3.58;3.28;;;15.20;99.90;;;;;;5032473;28;20108;-80
2023/08/06 06:11:04;;;;;;;4.97;4.32;;;14.90;99.90;;;;;;5034461;28;20014;-80
2023/08/06 06:13:30;;;;;;;4.90;3.60;;;14.90;99.90;;;;;;5035073;28;20480;-81
2023/08/06 06:15:56;;;;;;;3.55;3.25;;;14.90;99.90;;;;;;5033813;28;20108;-80
2023/08/06 06:18:22;;;;;;;6.05;3.70;;;15.00;99.90;;;;;;5034459;28;20408;-81
2023/08/06 06:20:47;;;;;;;3.60;3.30;;;15.00;99.90;;;;;;5034298;28;20026;-81
2023/08/06 06:23:14;;;;;;;4.55;3.47;;;15.00;99.90;;;;;;5033758;28;20024;-81
2023/08/06 06:25:57;;;;;;;3.67;3.17;;;15.00;99.90;;;;;;5033312;28;20025;-80
2023/08/06 06:28:23;;;;;;;3.90;2.95;;;15.00;99.90;;;;;;5033082;28;20020;-80
2023/08/06 06:30:48;;;;;;;4.05;3.08;;;15.00;99.90;;;;;;5034242;28;20093;-80
2023/08/06 06:33:14;;;;;;;2.90;2.70;;;15.10;99.90;;;;;;5034375;28;20423;-80
2023/08/06 06:35:39;;;;;;;4.63;3.00;;;15.30;99.90;;;;;;5034587;28;20075;-80
2023/08/06 06:38:05;;;;;;;4.10;3.38;;;15.10;99.90;;;;;;5034223;28;20072;-78
2023/08/06 06:40:31;;;;;;;7.47;3.55;;;15.00;99.90;;;;;;5034162;28;20432;-79
2023/08/06 06:42:56;;;;;;;4.38;3.80;;;15.00;99.90;;;;;;5029517;28;20040;-79
2023/08/06 06:45:22;;;;;;;3.92;3.63;;;14.90;99.90;;;;;;5032145;28;20033;-79
2023/08/06 06:47:47;;;;;;;3.83;3.20;;;14.90;99.90;;;;;;5032290;28;20643;-80
2023/08/06 06:50:13;;;;;;;5.38;3.10;;;14.90;99.90;;;;;;5033556;28;20021;-82
2023/08/06 06:52:38;;;;;;;6.57;3.30;;;14.90;99.90;;;;;;5031907;28;20361;-78
2023/08/06 06:55:04;;;;;;;6.65;4.35;;;14.90;99.90;;;;;;5033902;28;20538;-78
2023/08/06 06:57:30;;;;;;;6.57;3.75;;;14.90;99.90;;;;;;5033669;28;20576;-78
2023/08/06 06:59:55;;;;;;;4.60;3.95;;;14.90;99.90;;;;;;5033156;28;20125;-78
2023/08/06 07:02:21;;;;;;;4.80;4.28;;;15.00;99.90;;;;;;5034579;28;20059;-78
2023/08/06 07:04:47;;;;;;;5.15;4.10;;;15.00;99.90;;;;;;5033007;28;20122;-79
2023/08/06 07:07:12;;;;;;;6.68;4.10;;;15.00;99.90;;;;;;5033005;28;20103;-78
2023/08/06 07:09:38;;;;;;;7.18;4.13;;;15.00;99.90;;;;;;5033108;28;20496;-78
2023/08/06 07:12:04;;;;;;;5.05;3.58;;;15.00;99.90;;;;;;5033167;28;20044;-78
2023/08/06 07:14:30;;;;;;;6.53;3.75;;;15.10;99.90;;;;;;5030522;28;20112;-78
2023/08/06 07:16:55;;;;;;;6.63;3.80;;;15.00;99.90;;;;;;5033283;28;20171;-79
2023/08/06 07:19:21;;;;;;;4.93;3.00;;;15.10;99.90;;;;;;5032997;28;20017;-79
2023/08/06 07:21:46;;;;;;;5.97;3.55;;;15.60;99.90;;;;;;5033815;28;20025;-79
2023/08/06 07:24:12;;;;;;;7.40;3.13;;;15.10;99.90;;;;;;5034768;28;20490;-79
2023/08/06 07:26:38;;;;;;;3.28;2.97;;;15.20;99.90;;;;;;5033590;28;20502;-79
2023/08/06 07:29:04;;;;;;;4.18;3.03;;;15.20;99.90;;;;;;5033030;28;20028;-79
2023/08/06 07:31:29;;;;;;;3.88;2.75;;;15.20;99.90;;;;;;5030032;28;20033;-79
2023/08/06 07:33:55;;;;;;;7.63;3.47;;;15.20;99.90;;;;;;5031948;28;20033;-81
2023/08/06 07:36:20;;;;;;;7.88;2.78;;;15.20;99.90;;;;;;5032046;28;20030;-81
2023/08/06 07:38:47;;;;;;;4.72;2.35;;;15.20;99.90;;;;;;5025563;28;20500;-80
2023/08/06 07:41:12;;;;;;;2.67;2.13;;;15.20;99.90;;;;;;5031668;28;20025;-80
2023/08/06 07:43:38;;;;;;;6.15;2.60;;;15.20;99.90;;;;;;5031888;28;20376;-81
2023/08/06 07:46:04;;;;;;;2.78;1.95;;;15.20;99.90;;;;;;5030829;28;20045;-80
2023/08/06 07:48:29;;;;;;;2.50;1.60;;;15.30;99.90;;;;;;5030741;28;20432;-81
2023/08/06 07:50:55;;;;;;;3.53;1.90;;;15.30;99.90;;;;;;5031054;28;20412;-80
2023/08/06 07:53:22;;;;;;;6.90;2.35;;;15.30;99.90;;;;;;5032447;28;20028;-81
2023/08/06 07:55:52;;;;;;;7.43;2.13;;;15.30;99.90;;;;;;5030652;28;20025;-83
2023/08/06 07:58:18;;;;;;;5.50;2.22;;;15.40;99.90;;;;;;5029660;28;20033;-82
2023/08/06 08:00:45;;;;;;;3.20;1.63;;;15.30;99.90;;;;;;5029172;28;20018;-83
2023/08/06 08:03:12;;;;;;;5.38;1.65;;;15.40;99.90;;;;;;5031331;28;20021;-82
2023/08/06 08:05:38;;;;;;;4.00;1.45;;;15.40;99.90;;;;;;5030728;28;20345;-83
2023/08/06 08:08:03;;;;;;;1.70;1.50;;;15.40;99.90;;;;;;5031438;28;20018;-80
2023/08/06 08:10:29;;;;;;;4.97;1.85;;;15.40;99.90;;;;;;5031225;28;20176;-80
2023/08/06 08:12:54;;;;;;;2.97;2.00;;;15.50;99.90;;;;;;5031251;28;20873;-80
2023/08/06 08:15:20;;;;;;;9.10;1.90;;;15.50;99.90;;;;;;5031094;28;20033;-82
2023/08/06 08:17:47;;;;;;;6.82;1.90;;;15.40;99.90;;;;;;5032042;28;20029;-82
2023/08/06 08:20:13;;;;;;;2.85;1.98;;;15.40;99.90;;;;;;5031242;28;20092;-83
2023/08/06 08:22:39;;;;;;;3.60;1.52;;;15.50;99.90;;;;;;5031674;28;20438;-84
2023/08/06 08:25:05;;;;;;;7.40;1.73;;;15.50;99.90;;;;;;5022127;28;20080;-82
2023/08/06 08:27:30;;;;;;;2.42;1.65;;;15.50;99.90;;;;;;5020690;28;20030;-82
2023/08/06 08:29:56;;;;;;;4.80;2.25;;;15.50;99.90;;;;;;5030832;28;20025;-82
2023/08/06 08:32:22;;;;;;;3.90;1.65;;;15.50;99.90;;;;;;5031496;28;20387;-81
2023/08/06 08:34:47;;;;;;;4.22;1.77;;;15.50;99.90;;;;;;5031059;28;20038;-83
2023/08/06 08:37:13;;;;;;;2.78;1.40;;;15.50;99.90;;;;;;5030824;28;20026;-82
2023/08/06 08:39:39;;;;;;;3.17;1.75;;;15.60;99.90;;;;;;5031337;28;20025;-84
2023/08/06 08:42:06;;;;;;;7.00;2.20;;;15.60;99.90;;;;;;5030416;28;20035;-86
2023/08/06 08:44:33;;;;;;;2.85;1.52;;;15.50;99.90;;;;;;5029932;28;20484;-87
2023/08/06 08:47:00;;;;;;;2.13;1.50;;;15.60;99.90;;;;;;5029904;28;20033;-83
2023/08/06 08:49:27;;;;;;;3.22;1.50;;;15.60;99.90;;;;;;5029902;28;20029;-81
2023/08/06 08:51:54;;;;;;;2.58;1.65;;;15.60;99.90;;;;;;5028281;28;20029;-82
2023/08/06 08:54:23;;;;;;;5.88;1.58;;;15.60;99.90;;;;;;5029398;28;20025;-83
2023/08/06 08:56:49;;;;;;;2.95;1.40;;;15.50;99.90;;;;;;5028717;28;20045;-83
2023/08/06 08:59:15;;;;;;;7.03;2.25;;;16.40;99.90;;;;;;5027171;28;20116;-83
2023/08/06 09:01:42;;;;;;;4.55;1.40;;;15.70;99.90;;;;;;5019676;28;20064;-84
2023/08/06 09:04:09;;;;;;;1.95;1.30;;;15.70;99.90;;;;;;5030917;28;20180;-82
2023/08/06 09:06:38;;;;;;;2.92;1.50;;;15.70;99.90;;;;;;5031209;28;20026;-83
2023/08/06 09:09:11;;;;;;;4.38;1.65;;;15.70;99.90;;;;;;5030658;28;20025;-81
2023/08/06 09:11:43;;;;;;;3.67;2.03;;;15.70;99.90;;;;;;5030992;28;20021;-82
2023/08/06 09:14:08;;;;;;;2.92;1.60;;;15.70;99.90;;;;;;5035142;28;20028;-82
2023/08/06 09:16:38;;;;;;;5.15;2.10;;;15.80;99.90;;;;;;5034936;28;20022;-82
2023/08/06 09:19:13;;;;;;;4.38;1.83;;;15.80;99.90;;;;;;5034798;28;20518;-82
2023/08/06 09:21:40;;;;;;;4.70;1.70;;;15.80;99.90;;;;;;5035346;28;20499;-82
2023/08/06 09:24:12;;;;;;;4.03;1.83;;;15.80;99.90;;;;;;5035276;28;20029;-82
2023/08/06 09:26:39;;;;;;;3.53;1.60;;;15.80;99.90;;;;;;5034091;28;20035;-83
2023/08/06 09:29:08;;;;;;;3.03;1.50;;;15.80;99.90;;;;;;5034477;28;20029;-81
2023/08/06 09:31:53;;;;;;;3.15;1.50;;;15.70;99.90;;;;;;5034089;28;20499;-81
2023/08/06 09:34:20;;;;;;;4.93;2.63;;;15.70;99.90;;;;;;5034537;28;20049;-82
2023/08/06 09:36:48;;;;;;;4.93;1.63;;;15.70;99.90;;;;;;5034456;28;20030;-83
2023/08/06 09:39:15;;;;;;;2.33;1.38;;;15.80;99.90;;;;;;5021932;28;20477;-84
2023/08/06 09:41:41;;;;;;;1.77;1.35;;;15.80;99.90;;;;;;5032463;28;20025;-80
2023/08/06 09:44:18;;;;;;;3.33;1.88;;;15.80;99.90;;;;;;5034056;28;20048;-81
2023/08/06 09:46:51;;;;;;;4.38;2.85;;;15.80;99.90;;;;;;5020018;28;20025;-80
2023/08/06 09:49:19;;;;;;;3.85;1.77;;;15.90;99.90;;;;;;5032981;28;20025;-81
2023/08/06 09:51:46;;;;;;;2.70;1.90;;;16.10;99.90;;;;;;5032344;28;20028;-80
2023/08/06 09:54:16;;;;;;;4.20;2.17;;;16.00;99.90;;;;;;5032171;28;20032;-81
2023/08/06 09:56:42;;;;;;;7.33;1.90;;;16.10;99.90;;;;;;5032593;28;20043;-81
2023/08/06 09:59:08;;;;;;;3.92;1.63;;;16.10;99.90;;;;;;5033291;28;20167;-80
2023/08/06 10:01:35;;;;;;;6.50;2.50;;;16.10;99.90;;;;;;5033375;28;20026;-80
2023/08/06 10:04:07;;;;;;;4.97;2.53;;;16.20;99.90;;;;;;5021237;28;20045;-81
2023/08/06 10:06:37;;;;;;;7.32;1.88;;;16.20;99.90;;;;;;5033973;28;20048;-80
2023/08/06 10:09:03;;;;;;;6.13;2.40;;;16.20;99.90;;;;;;5029085;28;20065;-80
2023/08/06 10:11:30;;;;;;;3.30;1.80;;;16.20;99.90;;;;;;5025074;28;20018;-80
2023/08/06 10:14:27;;;;;;;2.33;1.75;;;16.30;99.90;;;;;;5026552;28;20079;-80
2023/08/06 10:16:53;;;;;;;4.30;1.50;;;16.30;99.90;;;;;;5017020;28;20033;-80
2023/08/06 10:19:19;;;;;;;3.35;1.40;;;16.20;99.90;;;;;;5029005;28;20075;-80
2023/08/06 10:22:14;;;;;;;7.72;1.73;;;16.40;99.90;;;;;;5016849;28;20481;-80
2023/08/06 10:24:53;;;;;;;4.70;1.88;;;16.40;99.90;;;;;;5011255;28;20030;-80
2023/08/06 10:27:39;;;;;;;1.80;1.50;;;16.40;99.90;;;;;;5028603;28;20060;-80
2023/08/06 10:30:29;;;;;;;7.47;1.63;;;16.40;99.90;;;;;;5030995;28;20052;-79
2023/08/06 10:33:02;;;;;;;3.60;2.00;;;16.50;99.90;;;;;;5033667;28;20025;-79
2023/08/06 10:35:34;;;;;;;2.30;1.90;;;16.60;99.90;;;;;;5027102;28;20454;-81
2023/08/06 10:38:31;;;;;;;2.50;1.23;;;16.60;99.90;;;;;;5013195;28;20041;-81
2023/08/06 10:40:57;;;;;;;1.73;1.40;;;16.70;99.90;;;;;;4999652;28;20030;-78
2023/08/06 10:43:31;;;;;;;3.88;1.55;;;16.70;99.90;;;;;;5011730;28;20054;-79
2023/08/06 10:45:58;;;;;;;2.67;1.30;;;16.70;99.90;;;;;;5013068;28;20041;-79
2023/08/06 10:48:36;;;;;;;2.17;1.20;;;16.70;99.90;;;;;;5013652;28;20026;-79
2023/08/06 10:51:02;;;;;;;2.60;1.42;;;16.70;99.90;;;;;;5013152;28;20022;-81
2023/08/06 10:53:28;;;;;;;3.70;1.92;;;16.70;99.90;;;;;;5013480;28;20093;-81
2023/08/06 10:55:54;;;;;;;1.63;1.45;;;16.70;99.90;;;;;;5013137;28;20083;-81
2023/08/06 10:58:19;;;;;;;2.28;1.50;;;16.70;99.90;;;;;;5012475;28;20046;-80
2023/08/06 11:00:46;;;;;;;10.23;1.52;;;16.70;99.90;;;;;;5013593;28;20022;-82
2023/08/06 11:03:11;;;;;;;4.93;1.50;;;16.70;99.90;;;;;;5013029;28;20113;-81
2023/08/06 11:05:37;;;;;;;2.90;1.60;;;16.70;99.90;;;;;;5011218;28;20113;-80
2023/08/06 11:08:02;;;;;;;1.63;1.17;;;16.70;99.90;;;;;;5001815;28;20045;-80
2023/08/06 11:10:28;;;;;;;1.20;1.10;;;16.70;99.90;;;;;;5009267;28;20523;-80
2023/08/06 11:12:54;;;;;;;2.30;1.25;;;16.70;99.90;;;;;;5011423;28;20030;-79
2023/08/06 11:15:23;;;;;;;3.85;1.23;;;16.80;99.90;;;;;;5022137;28;20033;-80
2023/08/06 11:17:50;;;;;;;2.45;1.67;;;16.90;99.90;;;;;;5005439;28;20042;-80
2023/08/06 11:20:16;;;;;;;1.85;1.10;;;16.90;99.90;;;;;;5006345;28;20024;-80
2023/08/06 11:22:41;;;;;;;4.72;2.08;;;17.00;99.90;;;;;;5011775;28;20034;-79
2023/08/06 11:25:07;;;;;;;1.30;1.20;;;17.00;99.90;;;;;;5012141;28;20105;-80
2023/08/06 11:27:33;;;;;;;1.40;0.80;;;17.00;99.90;;;;;;5011367;28;20503;-80
2023/08/06 11:29:59;;;;;;;1.27;1.00;;;17.10;99.90;;;;;;5012488;28;20534;-79
2023/08/06 11:32:24;;;;;;;3.33;1.10;;;17.10;99.90;;;;;;5019958;28;20025;-79
2023/08/06 11:34:50;;;;;;;1.30;0.77;;;17.10;99.90;;;;;;5027331;28;20136;-79
2023/08/06 11:37:16;;;;;;;4.88;1.40;;;17.20;99.90;;;;;;5032360;28;20087;-79
2023/08/06 11:39:48;;;;;;;2.05;0.70;;;17.20;99.90;;;;;;5030730;28;20041;-82
2023/08/06 11:42:13;;;;;;;2.88;1.02;;;17.20;99.90;;;;;;5032579;28;20021;-82
2023/08/06 11:44:45;;;;;;;1.35;1.23;;;17.30;99.90;;;;;;5032076;28;20047;-82
2023/08/06 11:47:13;;;;;;;3.45;1.42;;;17.30;99.90;;;;;;5032061;28;20506;-82
2023/08/06 11:49:49;;;;;;;2.40;0.85;;;17.30;99.90;;;;;;5031992;28;20469;-83
2023/08/06 11:52:19;;;;;;;2.30;1.27;;;17.40;99.90;;;;;;5019978;28;20034;-80
2023/08/06 11:54:46;;;;;;;5.45;1.17;;;17.30;99.90;;;;;;5031013;28;20030;-80
2023/08/06 11:57:12;;;;;;;2.25;1.17;;;17.40;99.90;;;;;;5032493;28;20045;-80
2023/08/06 11:59:39;;;;;;;2.10;1.30;;;17.90;99.90;;;;;;5031289;28;20033;-80
2023/08/06 12:02:08;;;;;;;2.65;1.08;;;17.50;99.90;;;;;;5031755;28;20065;-80
2023/08/06 12:05:04;;;;;;;1.10;1.00;;;17.50;99.90;;;;;;5031609;28;20026;-80
2023/08/06 12:07:31;;;;;;;4.32;1.10;;;17.60;99.90;;;;;;5031416;28;20108;-81
2023/08/06 12:09:57;;;;;;;1.15;0.80;;;17.60;99.90;;;;;;5032105;28;20025;-80
2023/08/06 12:12:23;;;;;;;3.00;0.95;;;17.80;99.90;;;;;;5018745;28;20026;-80
2023/08/06 12:14:49;;;;;;;1.15;1.02;;;17.70;99.90;;;;;;5030706;28;20033;-82
2023/08/06 12:17:14;;;;;;;1.55;1.20;;;17.70;99.90;;;;;;5030963;28;20037;-80
2023/08/06 12:19:40;;;;;;;1.92;1.10;;;17.80;99.90;;;;;;5027484;28;20029;-79
2023/08/06 12:22:05;;;;;;;3.17;0.80;;;17.80;99.90;;;;;;5030894;28;20026;-79
2023/08/06 12:24:31;;;;;;;4.07;1.00;;;17.80;99.90;;;;;;5030418;28;20083;-79
2023/08/06 12:27:01;;;;;;;0.60;0.60;;;18.20;99.90;;;;;;5031433;28;20472;-79
2023/08/06 12:29:28;;;;;;;2.35;1.08;;;17.90;99.90;;;;;;5030183;28;20516;-79
2023/08/06 12:31:53;;;;;;;3.15;0.70;;;17.90;99.90;;;;;;5016255;28;20034;-79
2023/08/06 12:34:19;;;;;;;2.83;0.70;;;17.80;99.90;;;;;;5021766;28;20086;-79
2023/08/06 12:36:44;;;;;;;0.85;0.70;;;17.80;99.90;;;;;;5030372;28;20036;-79
2023/08/06 12:39:10;;;;;;;4.93;1.08;;;17.70;99.90;;;;;;5026552;28;20076;-80
2023/08/06 12:41:36;;;;;;;2.75;0.68;;;17.70;99.90;;;;;;5017100;28;20016;-80
2023/08/06 12:44:01;;;;;;;1.25;0.70;;;17.70;99.90;;;;;;5017829;28;20029;-80
2023/08/06 12:46:27;;;;;;;8.55;1.13;;;17.70;99.90;;;;;;5018114;28;20368;-79